Weather reports worldwide

Advertisment
Alto De Los Leones, Spain (8217): temperature & dewpoint: 06.12.2019 18:00:00 - 12.12.2019 18:00:00 (CET)Alto De Los Leones, Spain (8217): wind speed & gusts: 06.12.2019 18:00:00 - 12.12.2019 18:00:00 (CET)Alto De Los Leones, Spain (8217): wind direction: 06.12.2019 18:00:00 - 12.12.2019 18:00:00 (CET)Alto De Los Leones, Spain (8217): precipitation: 06.12.2019 18:00:00 - 12.12.2019 18:00:00 (CET)
Date & Time tt [°C] td [°C] ff [km/h] ff [kn] fx [km/h] fx [kn] dd rr [mm]
12.12.2019 18:00:00 - - - - - - - -
12.12.2019 17:00:00 2,2 -0,7 56 30 95 52 WNW 0,0
12.12.2019 16:00:00 1,7 -1,2 53 29 93 50 WNW 0,0
12.12.2019 15:00:00 1,2 -1,7 44 24 70 38 WNW 0,0
12.12.2019 14:00:00 0,8 -2,2 43 23 70 38 WNW 0,3
12.12.2019 13:00:00 - - - - - - - -
12.12.2019 12:00:00 - - - - - - - -
12.12.2019 11:00:00 0,0 -2,7 52 28 77 42 WNW 0,0
12.12.2019 10:00:00 0,0 -2,7 49 26 84 46 WNW 0,0
12.12.2019 09:00:00 0,0 -2,7 49 26 74 40 WNW 0,0
12.12.2019 08:00:00 -0,4 -3,3 48 26 79 43 WNW 0,0
12.12.2019 07:00:00 -0,8 -3,6 53 29 86 46 WNW -
12.12.2019 06:00:00 -0,9 -3,9 54 29 84 45 WNW 0,0
12.12.2019 05:00:00 -0,8 -3,6 52 28 82 44 WNW 0,0
12.12.2019 04:00:00 -0,8 -3,6 56 30 84 46 WNW 0,0
12.12.2019 03:00:00 -1,1 -3,9 54 29 87 47 WNW 0,0
12.12.2019 02:00:00 -1,1 -3,9 58 31 97 52 WNW 0,0
12.12.2019 01:00:00 -1,2 -4,2 60 32 84 45 WNW -
12.12.2019 00:00:00 -1,3 -4,5 57 31 83 45 WNW 0,0
11.12.2019 23:00:00 -1,5 -4,5 55 30 80 43 WNW 0,0
11.12.2019 22:00:00 -1,5 -4,5 59 32 87 47 WNW 0,0
11.12.2019 21:00:00 -1,9 -4,8 51 27 77 41 WNW 0,0
11.12.2019 20:00:00 -1,4 -4,5 49 27 76 41 WNW 0,0
11.12.2019 19:00:00 -0,6 -3,6 47 26 70 38 WNW -
11.12.2019 18:00:00 -0,1 -4,5 45 24 72 39 WNW 0,0
11.12.2019 17:00:00 -0,6 -5,1 47 25 81 44 NW 0,0
11.12.2019 16:00:00 -0,5 -3,3 53 28 82 44 NW 0,0
11.12.2019 15:00:00 -0,1 -3,0 52 28 79 42 NW 0,0
11.12.2019 14:00:00 0,0 -2,7 46 25 79 42 NW 0,0
11.12.2019 13:00:00 0,5 -2,5 48 26 75 41 NW -
11.12.2019 12:00:00 1,0 -2,0 49 26 74 40 WNW 0,0
11.12.2019 11:00:00 2,6 -0,3 46 25 78 42 WNW 1,5
11.12.2019 10:00:00 3,5 0,6 42 23 64 34 WNW 0,9
11.12.2019 09:00:00 3,5 -1,7 26 14 42 23 WNW 0,0
11.12.2019 08:00:00 3,2 -9,0 28 15 40 22 WNW 0,0
11.12.2019 07:00:00 3,2 -14,5 25 13 36 20 WNW -
11.12.2019 06:00:00 2,8 -15,1 25 14 36 20 WNW 0,0
11.12.2019 05:00:00 2,3 -14,5 26 14 36 20 WNW 0,0
11.12.2019 04:00:00 2,5 -14,5 26 14 37 20 WNW 0,0
11.12.2019 03:00:00 1,7 -13,3 29 16 42 23 WNW 0,0
11.12.2019 02:00:00 2,5 -12,8 25 14 35 19 WNW 0,0
11.12.2019 01:00:00 2,9 -11,7 24 13 37 20 WNW -
11.12.2019 00:00:00 2,4 -12,2 27 15 42 23 WNW 0,0
10.12.2019 23:00:00 3,3 -12,8 34 18 48 26 WNW 0,0
10.12.2019 22:00:00 3,5 -12,2 33 18 44 24 WNW 0,0
10.12.2019 21:00:00 3,6 -11,7 27 14 37 20 WNW 0,0
10.12.2019 20:00:00 4,0 -10,8 25 14 33 18 WNW 0,0
10.12.2019 19:00:00 4,0 -10,8 17 9 23 13 WNW -
10.12.2019 18:00:00 4,6 -9,4 20 11 31 17 WNW 0,0
10.12.2019 17:00:00 5,4 -9,4 24 13 31 17 WNW 0,0
10.12.2019 16:00:00 7,1 -10,8 16 9 31 17 WNW 0,0
10.12.2019 15:00:00 8,2 -12,8 19 10 29 16 WNW 0,0
10.12.2019 14:00:00 8,6 -13,9 16 9 24 13 WNW 0,0
10.12.2019 13:00:00 7,5 -12,8 14 7 24 13 WNW -
10.12.2019 12:00:00 6,0 -13,9 19 10 26 14 WNW 0,0
10.12.2019 11:00:00 5,4 -13,3 11 6 17 9 WNW 0,0
10.12.2019 10:00:00 2,9 -14,5 13 7 18 10 WNW 0,0
10.12.2019 09:00:00 2,4 -15,1 11 6 14 7 W 0,0
10.12.2019 08:00:00 2,3 -11,7 8 4 16 9 W 0,0
10.12.2019 07:00:00 -0,1 -8,6 14 8 22 12 W -
10.12.2019 06:00:00 0,5 -8,6 18 10 24 13 W 0,0
10.12.2019 05:00:00 0,9 -9,0 10 6 23 12 W 0,0
10.12.2019 04:00:00 -0,4 -4,8 20 11 31 17 WNW 0,0
10.12.2019 03:00:00 -0,4 -7,1 23 12 30 16 WNW 0,0
10.12.2019 02:00:00 0,0 -9,0 23 12 35 19 WNW 0,0
10.12.2019 01:00:00 0,0 -9,0 23 12 36 19 WNW -
10.12.2019 00:00:00 0,3 -9,9 26 14 40 21 WNW 0,0
09.12.2019 23:00:00 1,7 -9,9 32 17 43 23 WNW 0,0
09.12.2019 22:00:00 1,3 -8,6 29 16 40 22 WNW 0,0
09.12.2019 21:00:00 1,7 -9,4 27 14 44 24 WNW 0,0
09.12.2019 20:00:00 2,1 -11,2 30 16 46 25 WNW 0,0
09.12.2019 19:00:00 2,2 -12,2 29 15 51 28 WNW -
09.12.2019 18:00:00 3,8 -13,9 37 20 54 29 NW 0,0
09.12.2019 17:00:00 4,3 -12,2 38 21 57 31 NW 0,0
09.12.2019 16:00:00 5,1 -11,2 39 21 62 33 NW 0,0
09.12.2019 15:00:00 5,2 -10,8 43 23 62 34 WNW 0,0
09.12.2019 14:00:00 6,3 -9,9 39 21 63 34 WNW 0,0
09.12.2019 13:00:00 5,5 -8,6 42 23 57 31 WNW -
09.12.2019 12:00:00 3,9 0,9 35 19 51 28 WNW 0,0
09.12.2019 11:00:00 0,4 -2,5 35 19 50 27 WNW 0,0
09.12.2019 10:00:00 0,7 -2,2 35 19 51 27 WNW 0,0
09.12.2019 09:00:00 0,3 -2,5 33 18 56 31 WNW 0,0
09.12.2019 08:00:00 1,4 -1,4 37 20 55 30 WNW 0,0
09.12.2019 07:00:00 1,8 -1,2 38 20 51 28 WNW -
09.12.2019 06:00:00 2,0 -1,0 32 17 54 29 WNW 0,0
09.12.2019 05:00:00 2,5 -0,5 33 18 47 25 WNW 0,0
09.12.2019 04:00:00 2,8 0,0 29 16 51 27 WNW 0,0
09.12.2019 03:00:00 3,6 0,6 37 20 56 30 WNW 0,0
09.12.2019 02:00:00 3,9 0,9 41 22 58 32 WNW 0,0
09.12.2019 01:00:00 4,4 1,5 31 17 43 23 WNW -
09.12.2019 00:00:00 4,7 1,7 25 13 - - WNW -
08.12.2019 23:00:00 - - - - - - - -
08.12.2019 22:00:00 - - - - - - - -
08.12.2019 21:00:00 6,0 3,0 32 18 49 26 WNW 1,4
08.12.2019 20:00:00 5,9 2,9 26 14 44 24 WNW 1,1
08.12.2019 19:00:00 5,7 2,7 27 15 41 22 WNW -
08.12.2019 18:00:00 5,6 2,7 29 16 45 25 WNW 0,6
08.12.2019 17:00:00 5,4 2,5 31 17 45 24 WNW 0,5
08.12.2019 16:00:00 4,9 1,9 29 15 48 26 WNW 0,3
08.12.2019 15:00:00 4,7 1,9 33 18 48 26 WNW 0,5
08.12.2019 14:00:00 4,7 1,9 26 14 36 19 WNW 0,0
08.12.2019 13:00:00 4,1 1,3 27 15 40 21 WNW -
08.12.2019 12:00:00 3,8 -1,2 26 14 37 20 WNW 0,0
08.12.2019 11:00:00 3,8 -3,9 27 14 42 23 WNW 0,0
08.12.2019 10:00:00 3,5 -5,1 31 17 44 24 WNW 0,0
08.12.2019 09:00:00 1,6 -4,5 31 17 43 23 WNW 0,0
08.12.2019 08:00:00 1,5 -2,5 32 17 39 21 WNW 0,0
08.12.2019 07:00:00 1,1 -2,0 24 13 34 18 WNW -
08.12.2019 06:00:00 0,8 -2,7 26 14 36 20 WNW 0,0
08.12.2019 05:00:00 1,2 -3,6 26 14 32 17 WNW 0,0
08.12.2019 04:00:00 2,7 -2,5 13 7 16 8 WNW 0,0
08.12.2019 03:00:00 2,7 -2,5 10 6 19 10 WNW 0,0
08.12.2019 02:00:00 2,2 -3,0 16 9 23 12 WNW 0,0
08.12.2019 01:00:00 2,6 -5,4 18 10 23 13 WNW -
08.12.2019 00:00:00 3,3 -7,1 13 7 19 10 W 0,0
07.12.2019 23:00:00 3,8 -3,0 16 8 22 12 W 0,0
07.12.2019 22:00:00 3,1 -1,2 14 8 21 11 WNW 0,0
07.12.2019 21:00:00 3,0 -1,2 16 9 24 13 WNW 0,0
07.12.2019 20:00:00 3,4 -1,0 18 10 24 13 WNW 0,0
07.12.2019 19:00:00 3,7 -0,7 15 8 22 12 W -
07.12.2019 18:00:00 3,9 -1,0 17 9 23 13 WNW 0,0
07.12.2019 17:00:00 6,5 -2,5 17 9 28 15 WNW 0,0
07.12.2019 16:00:00 7,7 -4,2 18 10 26 14 WNW 0,0
07.12.2019 15:00:00 8,1 -3,6 16 9 23 12 WNW 0,0
07.12.2019 14:00:00 7,7 -4,2 13 7 19 10 WNW 0,0
07.12.2019 13:00:00 7,1 -1,2 7 4 10 6 E -
07.12.2019 12:00:00 7,2 -3,3 2 1 7 4 NNW 0,0
07.12.2019 11:00:00 5,0 -2,7 5 3 15 8 WNW 0,0
07.12.2019 10:00:00 2,6 -3,9 11 6 15 8 WNW 0,0
07.12.2019 09:00:00 3,2 -5,1 6 3 16 9 W 0,0
07.12.2019 08:00:00 2,7 -2,0 13 7 20 11 ESE 0,0
07.12.2019 07:00:00 2,4 -2,2 14 7 19 10 ESE -
07.12.2019 06:00:00 2,1 -2,0 1 1 10 5 ESE 0,0
07.12.2019 05:00:00 2,2 -1,4 8 5 14 7 W 0,0
07.12.2019 04:00:00 1,6 -2,2 11 6 18 10 WNW 0,0
07.12.2019 03:00:00 2,0 -2,5 8 5 13 7 W 0,0
07.12.2019 02:00:00 2,2 -2,0 1 0 14 7 WNW 0,0
07.12.2019 01:00:00 1,9 -2,0 10 5 13 7 ESE -
07.12.2019 00:00:00 2,1 -2,0 8 5 10 5 SE 0,0
06.12.2019 23:00:00 2,0 -1,7 7 4 11 6 WSW 0,0
06.12.2019 22:00:00 2,0 -1,7 12 7 22 12 ESE 0,0
06.12.2019 21:00:00 2,4 -1,7 13 7 19 10 ESE 0,0
06.12.2019 20:00:00 2,7 -1,4 9 5 16 9 ESE 0,0
06.12.2019 19:00:00 3,0 -1,4 10 5 14 8 ESE -
06.12.2019 18:00:00 3,7 -2,2 8 4 10 5 SE 0,0

tt = temperature
td = dewpoint
ff = wind speed
fx = gusts
dd = wind direction
rr = precipitation

Next stations